sensor_id;sensor_type;location;lat;lon;timestamp;temperature;humidity
516;DHT22;244;48.508;9.052;2023-07-31T00:01:46;16.40;17.10
516;DHT22;244;48.508;9.052;2023-07-31T00:04:15;16.30;17.20
516;DHT22;244;48.508;9.052;2023-07-31T00:06:41;16.30;17.90
516;DHT22;244;48.508;9.052;2023-07-31T00:09:08;16.30;17.30
516;DHT22;244;48.508;9.052;2023-07-31T00:11:36;16.30;18.10
516;DHT22;244;48.508;9.052;2023-07-31T00:14:03;16.20;17.50
516;DHT22;244;48.508;9.052;2023-07-31T00:16:30;16.20;17.60
516;DHT22;244;48.508;9.052;2023-07-31T00:18:57;16.20;17.70
516;DHT22;244;48.508;9.052;2023-07-31T00:21:26;16.10;17.60
516;DHT22;244;48.508;9.052;2023-07-31T00:23:52;16.10;17.80
516;DHT22;244;48.508;9.052;2023-07-31T00:26:19;16.00;17.90
516;DHT22;244;48.508;9.052;2023-07-31T00:28:46;16.00;18.00
516;DHT22;244;48.508;9.052;2023-07-31T00:31:13;16.00;18.10
516;DHT22;244;48.508;9.052;2023-07-31T00:33:40;16.00;18.30
516;DHT22;244;48.508;9.052;2023-07-31T00:36:07;16.00;18.30
516;DHT22;244;48.508;9.052;2023-07-31T00:38:35;16.00;18.40
516;DHT22;244;48.508;9.052;2023-07-31T00:41:02;16.00;18.50
516;DHT22;244;48.508;9.052;2023-07-31T00:43:29;16.00;18.60
516;DHT22;244;48.508;9.052;2023-07-31T00:45:56;16.00;18.70
516;DHT22;244;48.508;9.052;2023-07-31T00:48:23;16.00;19.30
516;DHT22;244;48.508;9.052;2023-07-31T00:50:50;15.90;18.60
516;DHT22;244;48.508;9.052;2023-07-31T00:53:17;15.90;18.70
516;DHT22;244;48.508;9.052;2023-07-31T00:55:46;15.90;18.80
516;DHT22;244;48.508;9.052;2023-07-31T00:58:13;15.90;19.50
516;DHT22;244;48.508;9.052;2023-07-31T01:00:40;15.80;18.80
516;DHT22;244;48.508;9.052;2023-07-31T01:03:07;15.80;18.80
516;DHT22;244;48.508;9.052;2023-07-31T01:05:47;15.70;18.70
516;DHT22;244;48.508;9.052;2023-07-31T01:08:21;15.70;18.70
516;DHT22;244;48.508;9.052;2023-07-31T01:10:56;15.70;19.40
516;DHT22;244;48.508;9.052;2023-07-31T01:13:24;15.70;18.70
516;DHT22;244;48.508;9.052;2023-07-31T01:15:51;15.70;19.30
516;DHT22;244;48.508;9.052;2023-07-31T01:18:18;15.70;18.70
516;DHT22;244;48.508;9.052;2023-07-31T01:20:51;15.70;18.80
516;DHT22;244;48.508;9.052;2023-07-31T01:26:22;15.60;18.90
516;DHT22;244;48.508;9.052;2023-07-31T01:28:54;15.50;18.90
516;DHT22;244;48.508;9.052;2023-07-31T01:31:23;15.50;19.60
516;DHT22;244;48.508;9.052;2023-07-31T01:33:52;15.50;19.20
516;DHT22;244;48.508;9.052;2023-07-31T01:36:20;15.50;19.30
516;DHT22;244;48.508;9.052;2023-07-31T01:38:47;15.50;19.80
516;DHT22;244;48.508;9.052;2023-07-31T01:41:16;15.50;19.20
516;DHT22;244;48.508;9.052;2023-07-31T01:43:45;15.40;19.20
516;DHT22;244;48.508;9.052;2023-07-31T01:46:12;15.40;19.30
516;DHT22;244;48.508;9.052;2023-07-31T01:48:39;15.40;19.90
516;DHT22;244;48.508;9.052;2023-07-31T01:51:06;15.40;19.40
516;DHT22;244;48.508;9.052;2023-07-31T01:53:33;15.30;19.30
516;DHT22;244;48.508;9.052;2023-07-31T01:55:59;15.30;19.40
516;DHT22;244;48.508;9.052;2023-07-31T01:58:26;15.30;19.50
516;DHT22;244;48.508;9.052;2023-07-31T02:00:55;15.30;20.10
516;DHT22;244;48.508;9.052;2023-07-31T02:03:22;15.30;19.50
516;DHT22;244;48.508;9.052;2023-07-31T02:05:49;15.30;19.50
516;DHT22;244;48.508;9.052;2023-07-31T02:08:16;15.20;19.40
516;DHT22;244;48.508;9.052;2023-07-31T02:10:43;15.20;20.20
516;DHT22;244;48.508;9.052;2023-07-31T02:13:10;15.20;19.70
516;DHT22;244;48.508;9.052;2023-07-31T02:15:37;15.20;19.80
516;DHT22;244;48.508;9.052;2023-07-31T02:18:06;15.20;19.80
516;DHT22;244;48.508;9.052;2023-07-31T02:20:34;15.10;20.40
516;DHT22;244;48.508;9.052;2023-07-31T02:23:01;15.10;19.80
516;DHT22;244;48.508;9.052;2023-07-31T02:25:28;15.10;19.80
516;DHT22;244;48.508;9.052;2023-07-31T02:27:55;15.10;19.80
516;DHT22;244;48.508;9.052;2023-07-31T02:30:22;15.10;19.90
516;DHT22;244;48.508;9.052;2023-07-31T02:32:49;15.10;19.90
516;DHT22;244;48.508;9.052;2023-07-31T02:35:17;15.10;20.00
516;DHT22;244;48.508;9.052;2023-07-31T02:37:44;15.10;20.00
516;DHT22;244;48.508;9.052;2023-07-31T02:40:12;15.10;20.10
516;DHT22;244;48.508;9.052;2023-07-31T02:42:39;15.00;20.00
516;DHT22;244;48.508;9.052;2023-07-31T02:45:07;15.00;20.70
516;DHT22;244;48.508;9.052;2023-07-31T02:47:34;15.00;20.20
516;DHT22;244;48.508;9.052;2023-07-31T02:50:01;15.00;20.80
516;DHT22;244;48.508;9.052;2023-07-31T02:52:29;15.00;20.30
516;DHT22;244;48.508;9.052;2023-07-31T02:54:57;15.00;20.90
516;DHT22;244;48.508;9.052;2023-07-31T02:57:24;15.00;20.30
516;DHT22;244;48.508;9.052;2023-07-31T02:59:51;14.90;20.20
516;DHT22;244;48.508;9.052;2023-07-31T03:02:17;14.90;20.20
516;DHT22;244;48.508;9.052;2023-07-31T03:04:44;14.90;20.20
516;DHT22;244;48.508;9.052;2023-07-31T03:07:11;14.90;20.30
516;DHT22;244;48.508;9.052;2023-07-31T03:09:39;14.90;20.30
516;DHT22;244;48.508;9.052;2023-07-31T03:12:07;14.90;20.30
516;DHT22;244;48.508;9.052;2023-07-31T03:14:34;14.90;20.40
516;DHT22;244;48.508;9.052;2023-07-31T03:17:01;14.80;20.40
516;DHT22;244;48.508;9.052;2023-07-31T03:19:30;14.90;20.50
516;DHT22;244;48.508;9.052;2023-07-31T03:21:57;14.90;20.60
516;DHT22;244;48.508;9.052;2023-07-31T03:24:24;14.90;20.70
516;DHT22;244;48.508;9.052;2023-07-31T03:26:52;14.90;20.80
516;DHT22;244;48.508;9.052;2023-07-31T03:29:19;14.90;20.80
516;DHT22;244;48.508;9.052;2023-07-31T03:31:46;14.90;20.70
516;DHT22;244;48.508;9.052;2023-07-31T03:34:13;14.90;20.70
516;DHT22;244;48.508;9.052;2023-07-31T03:36:40;15.00;20.80
516;DHT22;244;48.508;9.052;2023-07-31T03:39:07;15.00;21.40
516;DHT22;244;48.508;9.052;2023-07-31T03:41:34;15.00;20.90
516;DHT22;244;48.508;9.052;2023-07-31T03:44:02;15.00;20.80
516;DHT22;244;48.508;9.052;2023-07-31T03:46:29;15.00;20.70
516;DHT22;244;48.508;9.052;2023-07-31T03:48:56;15.00;20.60
516;DHT22;244;48.508;9.052;2023-07-31T03:51:23;15.00;21.20
516;DHT22;244;48.508;9.052;2023-07-31T03:53:50;15.00;20.60
516;DHT22;244;48.508;9.052;2023-07-31T03:56:16;15.00;20.60
516;DHT22;244;48.508;9.052;2023-07-31T03:58:43;14.90;20.50
516;DHT22;244;48.508;9.052;2023-07-31T04:01:12;15.00;20.70
516;DHT22;244;48.508;9.052;2023-07-31T04:03:38;15.00;20.70
516;DHT22;244;48.508;9.052;2023-07-31T04:06:05;15.00;21.20
516;DHT22;244;48.508;9.052;2023-07-31T04:08:33;15.00;20.70
516;DHT22;244;48.508;9.052;2023-07-31T04:11:00;15.00;20.70
516;DHT22;244;48.508;9.052;2023-07-31T04:13:28;15.00;20.80
516;DHT22;244;48.508;9.052;2023-07-31T04:15:55;15.10;20.80
516;DHT22;244;48.508;9.052;2023-07-31T04:18:25;15.10;20.70
516;DHT22;244;48.508;9.052;2023-07-31T04:20:52;15.10;20.60
516;DHT22;244;48.508;9.052;2023-07-31T04:23:20;15.10;21.20
516;DHT22;244;48.508;9.052;2023-07-31T04:25:47;15.10;20.60
516;DHT22;244;48.508;9.052;2023-07-31T04:28:14;15.10;20.70
516;DHT22;244;48.508;9.052;2023-07-31T04:30:40;15.20;20.90
516;DHT22;244;48.508;9.052;2023-07-31T04:33:07;15.20;20.90
516;DHT22;244;48.508;9.052;2023-07-31T04:35:36;15.20;21.10
516;DHT22;244;48.508;9.052;2023-07-31T04:38:02;15.30;20.90
516;DHT22;244;48.508;9.052;2023-07-31T04:40:29;15.30;21.50
516;DHT22;244;48.508;9.052;2023-07-31T04:42:56;15.40;20.80
516;DHT22;244;48.508;9.052;2023-07-31T04:45:23;15.40;20.80
516;DHT22;244;48.508;9.052;2023-07-31T04:47:50;15.50;20.80
516;DHT22;244;48.508;9.052;2023-07-31T04:50:17;15.60;20.80
516;DHT22;244;48.508;9.052;2023-07-31T04:52:45;15.60;20.70
516;DHT22;244;48.508;9.052;2023-07-31T04:55:12;15.70;20.70
516;DHT22;244;48.508;9.052;2023-07-31T04:57:39;15.70;20.60
516;DHT22;244;48.508;9.052;2023-07-31T05:00:06;15.70;21.10
516;DHT22;244;48.508;9.052;2023-07-31T05:02:33;15.70;20.40
516;DHT22;244;48.508;9.052;2023-07-31T05:05:00;15.80;20.50
516;DHT22;244;48.508;9.052;2023-07-31T05:07:27;15.80;20.50
516;DHT22;244;48.508;9.052;2023-07-31T05:09:55;15.80;20.40
516;DHT22;244;48.508;9.052;2023-07-31T05:12:22;15.80;20.40
516;DHT22;244;48.508;9.052;2023-07-31T05:14:48;15.90;20.40
516;DHT22;244;48.508;9.052;2023-07-31T05:17:15;15.90;21.00
516;DHT22;244;48.508;9.052;2023-07-31T05:19:42;16.00;20.50
516;DHT22;244;48.508;9.052;2023-07-31T05:22:09;16.00;20.40
516;DHT22;244;48.508;9.052;2023-07-31T05:24:36;16.10;20.30
516;DHT22;244;48.508;9.052;2023-07-31T05:27:08;16.20;20.40
516;DHT22;244;48.508;9.052;2023-07-31T05:29:35;16.30;20.40
516;DHT22;244;48.508;9.052;2023-07-31T05:32:02;16.40;20.90
516;DHT22;244;48.508;9.052;2023-07-31T05:34:29;16.40;20.20
516;DHT22;244;48.508;9.052;2023-07-31T05:36:56;16.50;20.20
516;DHT22;244;48.508;9.052;2023-07-31T05:39:23;16.60;20.20
516;DHT22;244;48.508;9.052;2023-07-31T05:41:50;16.70;20.20
516;DHT22;244;48.508;9.052;2023-07-31T05:44:18;16.80;20.10
516;DHT22;244;48.508;9.052;2023-07-31T05:46:45;17.00;20.00
516;DHT22;244;48.508;9.052;2023-07-31T05:49:11;17.10;19.90
516;DHT22;244;48.508;9.052;2023-07-31T05:51:38;17.20;19.70
516;DHT22;244;48.508;9.052;2023-07-31T05:54:05;17.30;19.80
516;DHT22;244;48.508;9.052;2023-07-31T05:56:32;17.30;20.40
516;DHT22;244;48.508;9.052;2023-07-31T05:58:59;17.40;19.90
516;DHT22;244;48.508;9.052;2023-07-31T06:01:27;17.50;19.90
516;DHT22;244;48.508;9.052;2023-07-31T06:03:54;17.60;19.70
516;DHT22;244;48.508;9.052;2023-07-31T06:06:21;17.60;19.60
516;DHT22;244;48.508;9.052;2023-07-31T06:08:48;17.60;19.50
516;DHT22;244;48.508;9.052;2023-07-31T06:11:15;17.60;20.10
516;DHT22;244;48.508;9.052;2023-07-31T06:13:42;17.60;19.50
516;DHT22;244;48.508;9.052;2023-07-31T06:16:10;17.70;19.50
516;DHT22;244;48.508;9.052;2023-07-31T06:18:38;17.70;19.50
516;DHT22;244;48.508;9.052;2023-07-31T06:21:05;17.70;19.50
516;DHT22;244;48.508;9.052;2023-07-31T06:23:32;17.70;19.60
516;DHT22;244;48.508;9.052;2023-07-31T06:25:59;17.70;19.60
516;DHT22;244;48.508;9.052;2023-07-31T06:28:27;17.70;19.60
516;DHT22;244;48.508;9.052;2023-07-31T06:30:55;17.70;19.60
516;DHT22;244;48.508;9.052;2023-07-31T06:33:22;17.70;19.50
516;DHT22;244;48.508;9.052;2023-07-31T06:35:51;17.80;19.60
516;DHT22;244;48.508;9.052;2023-07-31T06:38:21;17.90;19.60
516;DHT22;244;48.508;9.052;2023-07-31T06:40:48;18.00;19.60
516;DHT22;244;48.508;9.052;2023-07-31T06:43:15;18.10;19.50
516;DHT22;244;48.508;9.052;2023-07-31T06:45:42;18.30;19.50
516;DHT22;244;48.508;9.052;2023-07-31T06:48:09;18.40;19.30
516;DHT22;244;48.508;9.052;2023-07-31T06:50:36;18.60;19.30
516;DHT22;244;48.508;9.052;2023-07-31T06:53:05;18.70;19.10
516;DHT22;244;48.508;9.052;2023-07-31T06:55:32;18.80;19.60
516;DHT22;244;48.508;9.052;2023-07-31T06:57:59;19.00;18.90
516;DHT22;244;48.508;9.052;2023-07-31T07:00:26;19.10;18.80
516;DHT22;244;48.508;9.052;2023-07-31T07:02:54;19.20;18.70
516;DHT22;244;48.508;9.052;2023-07-31T07:05:21;19.30;18.60
516;DHT22;244;48.508;9.052;2023-07-31T07:07:49;19.30;18.50
516;DHT22;244;48.508;9.052;2023-07-31T07:10:18;19.40;18.50
516;DHT22;244;48.508;9.052;2023-07-31T07:12:45;19.50;18.50
516;DHT22;244;48.508;9.052;2023-07-31T07:15:12;19.60;18.40
516;DHT22;244;48.508;9.052;2023-07-31T07:17:39;19.70;18.20
516;DHT22;244;48.508;9.052;2023-07-31T07:20:07;19.70;18.20
516;DHT22;244;48.508;9.052;2023-07-31T07:22:34;19.80;18.10
516;DHT22;244;48.508;9.052;2023-07-31T07:25:01;20.00;18.10
516;DHT22;244;48.508;9.052;2023-07-31T07:27:29;20.20;18.00
516;DHT22;244;48.508;9.052;2023-07-31T07:29:56;20.30;17.90
516;DHT22;244;48.508;9.052;2023-07-31T07:32:23;20.40;18.30
516;DHT22;244;48.508;9.052;2023-07-31T07:34:50;20.50;18.20
516;DHT22;244;48.508;9.052;2023-07-31T07:37:17;20.60;17.30
516;DHT22;244;48.508;9.052;2023-07-31T07:39:44;20.70;17.20
516;DHT22;244;48.508;9.052;2023-07-31T07:42:11;20.80;17.00
516;DHT22;244;48.508;9.052;2023-07-31T07:44:39;20.80;16.80
516;DHT22;244;48.508;9.052;2023-07-31T07:47:06;20.90;16.60
516;DHT22;244;48.508;9.052;2023-07-31T07:49:33;20.90;16.40
516;DHT22;244;48.508;9.052;2023-07-31T07:52:01;20.90;16.20
516;DHT22;244;48.508;9.052;2023-07-31T07:54:27;21.00;16.00
516;DHT22;244;48.508;9.052;2023-07-31T07:56:54;21.00;15.70
516;DHT22;244;48.508;9.052;2023-07-31T07:59:21;21.00;16.10
516;DHT22;244;48.508;9.052;2023-07-31T08:01:49;21.00;15.50
516;DHT22;244;48.508;9.052;2023-07-31T08:04:16;21.00;15.30
516;DHT22;244;48.508;9.052;2023-07-31T08:06:43;21.00;14.90
516;DHT22;244;48.508;9.052;2023-07-31T08:09:10;21.10;14.70
516;DHT22;244;48.508;9.052;2023-07-31T08:11:37;21.10;14.30
516;DHT22;244;48.508;9.052;2023-07-31T08:14:03;21.20;14.10
516;DHT22;244;48.508;9.052;2023-07-31T08:16:30;21.20;13.50
516;DHT22;244;48.508;9.052;2023-07-31T08:18:59;21.20;12.80
516;DHT22;244;48.508;9.052;2023-07-31T08:21:26;21.30;12.90
516;DHT22;244;48.508;9.052;2023-07-31T08:23:52;21.30;12.70
516;DHT22;244;48.508;9.052;2023-07-31T08:26:20;21.40;12.40
516;DHT22;244;48.508;9.052;2023-07-31T08:28:47;21.40;12.20
516;DHT22;244;48.508;9.052;2023-07-31T08:31:14;21.50;11.80
516;DHT22;244;48.508;9.052;2023-07-31T08:33:41;21.60;12.20
516;DHT22;244;48.508;9.052;2023-07-31T08:36:09;21.70;11.40
516;DHT22;244;48.508;9.052;2023-07-31T08:38:36;21.80;11.20
516;DHT22;244;48.508;9.052;2023-07-31T08:41:03;22.00;10.80
516;DHT22;244;48.508;9.052;2023-07-31T08:43:30;22.10;10.30
516;DHT22;244;48.508;9.052;2023-07-31T08:45:57;22.10;9.90
516;DHT22;244;48.508;9.052;2023-07-31T08:48:24;22.20;9.70
516;DHT22;244;48.508;9.052;2023-07-31T08:50:52;22.20;9.60
516;DHT22;244;48.508;9.052;2023-07-31T08:53:21;22.20;9.60
516;DHT22;244;48.508;9.052;2023-07-31T08:55:48;22.20;9.20
516;DHT22;244;48.508;9.052;2023-07-31T08:58:17;22.30;8.60
516;DHT22;244;48.508;9.052;2023-07-31T09:00:46;22.40;9.30
516;DHT22;244;48.508;9.052;2023-07-31T09:03:14;22.60;8.50
516;DHT22;244;48.508;9.052;2023-07-31T09:05:43;22.70;8.30
516;DHT22;244;48.508;9.052;2023-07-31T09:08:10;22.60;8.10
516;DHT22;244;48.508;9.052;2023-07-31T09:10:41;22.60;8.80
516;DHT22;244;48.508;9.052;2023-07-31T09:13:09;22.50;8.20
516;DHT22;244;48.508;9.052;2023-07-31T09:15:36;22.50;8.20
516;DHT22;244;48.508;9.052;2023-07-31T09:18:05;22.50;8.10
516;DHT22;244;48.508;9.052;2023-07-31T09:20:32;22.60;8.00
516;DHT22;244;48.508;9.052;2023-07-31T09:23:05;22.70;7.90
516;DHT22;244;48.508;9.052;2023-07-31T09:25:33;22.90;7.80
516;DHT22;244;48.508;9.052;2023-07-31T09:28:03;23.10;7.30
516;DHT22;244;48.508;9.052;2023-07-31T09:30:30;23.30;7.20
516;DHT22;244;48.508;9.052;2023-07-31T09:33:02;23.50;6.90
516;DHT22;244;48.508;9.052;2023-07-31T09:35:30;23.50;6.60
516;DHT22;244;48.508;9.052;2023-07-31T09:37:58;23.60;6.00
516;DHT22;244;48.508;9.052;2023-07-31T09:40:27;23.60;5.90
516;DHT22;244;48.508;9.052;2023-07-31T09:42:56;23.60;5.90
516;DHT22;244;48.508;9.052;2023-07-31T09:45:25;23.60;5.90
516;DHT22;244;48.508;9.052;2023-07-31T09:47:52;23.70;6.00
516;DHT22;244;48.508;9.052;2023-07-31T09:50:20;23.80;6.00
516;DHT22;244;48.508;9.052;2023-07-31T09:52:48;23.90;6.10
516;DHT22;244;48.508;9.052;2023-07-31T09:55:15;23.90;6.00
516;DHT22;244;48.508;9.052;2023-07-31T09:57:44;24.00;5.80
516;DHT22;244;48.508;9.052;2023-07-31T10:00:12;23.90;5.70
516;DHT22;244;48.508;9.052;2023-07-31T10:02:41;23.90;5.70
516;DHT22;244;48.508;9.052;2023-07-31T10:05:08;23.80;5.90
516;DHT22;244;48.508;9.052;2023-07-31T10:07:37;23.80;5.90
516;DHT22;244;48.508;9.052;2023-07-31T10:10:07;23.70;5.80
516;DHT22;244;48.508;9.052;2023-07-31T10:12:34;23.60;5.90
516;DHT22;244;48.508;9.052;2023-07-31T10:15:03;23.60;5.90
516;DHT22;244;48.508;9.052;2023-07-31T10:17:30;23.50;5.80
516;DHT22;244;48.508;9.052;2023-07-31T10:19:59;23.40;5.80
516;DHT22;244;48.508;9.052;2023-07-31T10:22:29;23.40;5.80
516;DHT22;244;48.508;9.052;2023-07-31T10:24:58;23.30;5.70
516;DHT22;244;48.508;9.052;2023-07-31T10:27:26;23.30;5.70
516;DHT22;244;48.508;9.052;2023-07-31T10:29:55;23.30;5.70
516;DHT22;244;48.508;9.052;2023-07-31T10:32:22;23.30;5.70
516;DHT22;244;48.508;9.052;2023-07-31T10:34:50;23.30;5.70
516;DHT22;244;48.508;9.052;2023-07-31T10:37:27;23.30;5.70
516;DHT22;244;48.508;9.052;2023-07-31T10:40:01;23.40;5.50
516;DHT22;244;48.508;9.052;2023-07-31T10:42:33;23.50;5.20
516;DHT22;244;48.508;9.052;2023-07-31T10:45:02;23.50;5.00
516;DHT22;244;48.508;9.052;2023-07-31T10:47:30;23.50;5.60
516;DHT22;244;48.508;9.052;2023-07-31T10:50:14;23.60;4.90
516;DHT22;244;48.508;9.052;2023-07-31T10:52:46;23.70;4.80
516;DHT22;244;48.508;9.052;2023-07-31T10:55:38;23.70;4.70
516;DHT22;244;48.508;9.052;2023-07-31T10:58:08;23.80;4.70
516;DHT22;244;48.508;9.052;2023-07-31T11:00:37;23.90;4.40
516;DHT22;244;48.508;9.052;2023-07-31T11:03:05;23.90;4.20
516;DHT22;244;48.508;9.052;2023-07-31T11:05:45;24.00;4.10
516;DHT22;244;48.508;9.052;2023-07-31T11:08:17;24.10;3.90
516;DHT22;244;48.508;9.052;2023-07-31T11:10:46;24.20;3.70
516;DHT22;244;48.508;9.052;2023-07-31T11:13:13;24.30;3.70
516;DHT22;244;48.508;9.052;2023-07-31T11:15:41;24.50;3.70
516;DHT22;244;48.508;9.052;2023-07-31T11:18:08;24.70;3.50
516;DHT22;244;48.508;9.052;2023-07-31T11:20:36;24.90;3.70
516;DHT22;244;48.508;9.052;2023-07-31T11:23:08;25.10;2.60
516;DHT22;244;48.508;9.052;2023-07-31T11:25:37;25.30;2.30
516;DHT22;244;48.508;9.052;2023-07-31T11:28:07;25.60;2.10
516;DHT22;244;48.508;9.052;2023-07-31T11:30:34;25.80;2.00
516;DHT22;244;48.508;9.052;2023-07-31T11:33:03;25.90;1.70
516;DHT22;244;48.508;9.052;2023-07-31T11:35:31;26.10;1.20
516;DHT22;244;48.508;9.052;2023-07-31T11:37:59;26.30;1.10
516;DHT22;244;48.508;9.052;2023-07-31T11:40:26;26.50;1.00
516;DHT22;244;48.508;9.052;2023-07-31T11:42:56;26.60;1.00
516;DHT22;244;48.508;9.052;2023-07-31T11:45:25;26.60;1.00
516;DHT22;244;48.508;9.052;2023-07-31T11:47:55;26.70;1.00
516;DHT22;244;48.508;9.052;2023-07-31T11:50:23;26.70;1.00
516;DHT22;244;48.508;9.052;2023-07-31T11:52:53;26.70;1.00
516;DHT22;244;48.508;9.052;2023-07-31T11:55:22;26.60;1.00
516;DHT22;244;48.508;9.052;2023-07-31T11:57:51;26.50;1.00
516;DHT22;244;48.508;9.052;2023-07-31T12:00:19;26.30;1.00
516;DHT22;244;48.508;9.052;2023-07-31T12:02:47;26.00;1.00
516;DHT22;244;48.508;9.052;2023-07-31T12:05:14;25.80;1.00
516;DHT22;244;48.508;9.052;2023-07-31T12:07:49;25.60;1.00
516;DHT22;244;48.508;9.052;2023-07-31T12:10:27;25.30;1.00
516;DHT22;244;48.508;9.052;2023-07-31T12:12:59;25.10;1.40
516;DHT22;244;48.508;9.052;2023-07-31T12:15:33;24.90;2.50
516;DHT22;244;48.508;9.052;2023-07-31T12:18:00;24.60;2.30
516;DHT22;244;48.508;9.052;2023-07-31T12:20:27;24.30;2.90
516;DHT22;244;48.508;9.052;2023-07-31T12:22:56;24.20;3.30
516;DHT22;244;48.508;9.052;2023-07-31T12:25:29;24.20;3.50
516;DHT22;244;48.508;9.052;2023-07-31T12:27:56;24.30;3.40
516;DHT22;244;48.508;9.052;2023-07-31T12:30:27;24.40;3.90
516;DHT22;244;48.508;9.052;2023-07-31T12:32:55;24.70;3.20
516;DHT22;244;48.508;9.052;2023-07-31T12:35:22;25.00;2.90
516;DHT22;244;48.508;9.052;2023-07-31T12:37:49;25.20;2.50
516;DHT22;244;48.508;9.052;2023-07-31T12:40:16;25.40;2.30
516;DHT22;244;48.508;9.052;2023-07-31T12:42:43;25.60;2.10
516;DHT22;244;48.508;9.052;2023-07-31T12:45:10;25.90;1.90
516;DHT22;244;48.508;9.052;2023-07-31T12:47:37;26.30;1.70
516;DHT22;244;48.508;9.052;2023-07-31T12:50:06;26.60;1.40
516;DHT22;244;48.508;9.052;2023-07-31T12:52:33;26.70;1.00
516;DHT22;244;48.508;9.052;2023-07-31T12:55:00;26.80;1.00
516;DHT22;244;48.508;9.052;2023-07-31T12:57:27;26.80;1.00
516;DHT22;244;48.508;9.052;2023-07-31T12:59:54;26.80;1.00
516;DHT22;244;48.508;9.052;2023-07-31T13:02:24;26.80;1.00
516;DHT22;244;48.508;9.052;2023-07-31T13:04:52;26.80;1.00
516;DHT22;244;48.508;9.052;2023-07-31T13:07:22;26.80;1.00
516;DHT22;244;48.508;9.052;2023-07-31T13:09:51;26.80;1.00
516;DHT22;244;48.508;9.052;2023-07-31T13:12:18;26.80;1.00
516;DHT22;244;48.508;9.052;2023-07-31T13:14:44;26.80;1.00
516;DHT22;244;48.508;9.052;2023-07-31T13:17:11;26.70;1.00
516;DHT22;244;48.508;9.052;2023-07-31T13:19:38;26.80;1.00
516;DHT22;244;48.508;9.052;2023-07-31T13:22:05;26.70;1.00
516;DHT22;244;48.508;9.052;2023-07-31T13:24:33;26.60;1.00
516;DHT22;244;48.508;9.052;2023-07-31T13:27:01;26.50;1.00
516;DHT22;244;48.508;9.052;2023-07-31T13:29:28;26.40;1.00
516;DHT22;244;48.508;9.052;2023-07-31T13:31:55;26.30;1.00
516;DHT22;244;48.508;9.052;2023-07-31T13:34:22;26.10;1.00
516;DHT22;244;48.508;9.052;2023-07-31T13:36:49;25.90;1.00
516;DHT22;244;48.508;9.052;2023-07-31T13:39:16;25.70;1.00
516;DHT22;244;48.508;9.052;2023-07-31T13:41:44;25.50;1.00
516;DHT22;244;48.508;9.052;2023-07-31T13:44:11;25.30;1.00
516;DHT22;244;48.508;9.052;2023-07-31T13:46:38;25.20;1.00
516;DHT22;244;48.508;9.052;2023-07-31T13:49:05;25.10;1.00
516;DHT22;244;48.508;9.052;2023-07-31T13:51:32;25.00;1.10
516;DHT22;244;48.508;9.052;2023-07-31T13:53:59;24.90;1.00
516;DHT22;244;48.508;9.052;2023-07-31T13:56:25;24.80;1.00
516;DHT22;244;48.508;9.052;2023-07-31T13:58:54;24.70;1.00
516;DHT22;244;48.508;9.052;2023-07-31T14:01:21;24.70;1.00
516;DHT22;244;48.508;9.052;2023-07-31T14:03:47;24.60;1.00
516;DHT22;244;48.508;9.052;2023-07-31T14:06:14;24.50;1.40
516;DHT22;244;48.508;9.052;2023-07-31T14:08:41;24.50;1.50
516;DHT22;244;48.508;9.052;2023-07-31T14:11:08;24.40;1.00
516;DHT22;244;48.508;9.052;2023-07-31T14:13:35;24.40;1.00
516;DHT22;244;48.508;9.052;2023-07-31T14:16:03;24.30;1.00
516;DHT22;244;48.508;9.052;2023-07-31T14:18:30;24.30;1.20
516;DHT22;244;48.508;9.052;2023-07-31T14:20:57;24.30;1.90
516;DHT22;244;48.508;9.052;2023-07-31T14:23:24;24.30;1.30
516;DHT22;244;48.508;9.052;2023-07-31T14:25:51;24.30;1.40
516;DHT22;244;48.508;9.052;2023-07-31T14:28:18;24.30;1.50
516;DHT22;244;48.508;9.052;2023-07-31T14:30:45;24.30;1.60
516;DHT22;244;48.508;9.052;2023-07-31T14:33:13;24.30;2.30
516;DHT22;244;48.508;9.052;2023-07-31T14:35:40;24.20;1.60
516;DHT22;244;48.508;9.052;2023-07-31T14:38:07;24.20;1.50
516;DHT22;244;48.508;9.052;2023-07-31T14:40:33;24.20;2.10
516;DHT22;244;48.508;9.052;2023-07-31T14:43:00;24.10;1.40
516;DHT22;244;48.508;9.052;2023-07-31T14:45:27;24.10;1.50
516;DHT22;244;48.508;9.052;2023-07-31T14:47:54;24.10;1.50
516;DHT22;244;48.508;9.052;2023-07-31T14:50:22;24.00;1.50
516;DHT22;244;48.508;9.052;2023-07-31T14:52:49;24.00;1.50
516;DHT22;244;48.508;9.052;2023-07-31T14:55:17;24.00;1.60
516;DHT22;244;48.508;9.052;2023-07-31T14:57:44;24.00;1.70
516;DHT22;244;48.508;9.052;2023-07-31T15:00:12;24.00;1.80
516;DHT22;244;48.508;9.052;2023-07-31T15:02:39;24.00;1.90
516;DHT22;244;48.508;9.052;2023-07-31T15:05:07;24.00;1.90
516;DHT22;244;48.508;9.052;2023-07-31T15:07:36;24.00;2.00
516;DHT22;244;48.508;9.052;2023-07-31T15:10:03;24.00;2.60
516;DHT22;244;48.508;9.052;2023-07-31T15:12:31;24.20;2.10
516;DHT22;244;48.508;9.052;2023-07-31T15:14:58;24.20;2.00
516;DHT22;244;48.508;9.052;2023-07-31T15:17:25;24.30;2.10
516;DHT22;244;48.508;9.052;2023-07-31T15:19:56;24.30;2.10
516;DHT22;244;48.508;9.052;2023-07-31T15:22:23;24.40;2.10
516;DHT22;244;48.508;9.052;2023-07-31T15:24:52;24.50;2.20
516;DHT22;244;48.508;9.052;2023-07-31T15:27:19;24.50;2.10
516;DHT22;244;48.508;9.052;2023-07-31T15:29:46;24.60;2.10
516;DHT22;244;48.508;9.052;2023-07-31T15:32:13;24.70;2.10
516;DHT22;244;48.508;9.052;2023-07-31T15:34:40;24.70;2.10
516;DHT22;244;48.508;9.052;2023-07-31T15:37:09;24.70;2.80
516;DHT22;244;48.508;9.052;2023-07-31T15:39:36;24.80;2.20
516;DHT22;244;48.508;9.052;2023-07-31T15:42:05;24.80;2.20
516;DHT22;244;48.508;9.052;2023-07-31T15:44:34;24.80;2.20
516;DHT22;244;48.508;9.052;2023-07-31T15:47:01;24.90;2.30
516;DHT22;244;48.508;9.052;2023-07-31T15:49:28;24.90;2.30
516;DHT22;244;48.508;9.052;2023-07-31T15:51:55;25.10;2.30
516;DHT22;244;48.508;9.052;2023-07-31T15:54:22;25.10;2.20
516;DHT22;244;48.508;9.052;2023-07-31T15:56:49;25.20;2.30
516;DHT22;244;48.508;9.052;2023-07-31T15:59:17;25.20;2.30
516;DHT22;244;48.508;9.052;2023-07-31T16:01:44;25.20;3.00
516;DHT22;244;48.508;9.052;2023-07-31T16:04:11;25.20;3.10
516;DHT22;244;48.508;9.052;2023-07-31T16:06:39;25.10;2.60
516;DHT22;244;48.508;9.052;2023-07-31T16:09:06;25.10;2.60
516;DHT22;244;48.508;9.052;2023-07-31T16:11:33;25.10;2.60
516;DHT22;244;48.508;9.052;2023-07-31T16:14:00;25.20;2.70
516;DHT22;244;48.508;9.052;2023-07-31T16:16:29;25.20;2.80
516;DHT22;244;48.508;9.052;2023-07-31T16:18:56;25.30;2.80
516;DHT22;244;48.508;9.052;2023-07-31T16:21:23;25.40;3.40
516;DHT22;244;48.508;9.052;2023-07-31T16:23:49;25.50;2.60
516;DHT22;244;48.508;9.052;2023-07-31T16:26:16;25.50;2.60
516;DHT22;244;48.508;9.052;2023-07-31T16:28:43;25.50;3.30
516;DHT22;244;48.508;9.052;2023-07-31T16:31:10;25.50;2.80
516;DHT22;244;48.508;9.052;2023-07-31T16:33:38;25.40;2.90
516;DHT22;244;48.508;9.052;2023-07-31T16:36:05;25.40;2.90
516;DHT22;244;48.508;9.052;2023-07-31T16:38:32;25.40;2.90
516;DHT22;244;48.508;9.052;2023-07-31T16:40:59;25.40;2.90
516;DHT22;244;48.508;9.052;2023-07-31T16:43:26;25.30;2.80
516;DHT22;244;48.508;9.052;2023-07-31T16:45:54;25.30;2.80
516;DHT22;244;48.508;9.052;2023-07-31T16:48:21;25.10;2.70